Conroe's Hourly Summary for Wednesday, March 15, 2017
Hour Temp
(f)
RH
(%)
Solar Rad.
(MJ/m2)
Rainfall
(in)
Wind
(mph)
3/15/2017 12:00 AM 46 80 0 0 0
3/15/2017 1:00 AM 45 87 0 0 0
3/15/2017 2:00 AM 44 89 0 0 0
3/15/2017 3:00 AM 44 88 0 0 0
3/15/2017 4:00 AM 44 89 0 0 0
3/15/2017 5:00 AM 44 89 0 0 0
3/15/2017 6:00 AM 44 88 0 0 0.22
3/15/2017 7:00 AM 45 84 0.03 0 2.27
3/15/2017 8:00 AM 47 74 0.49 0 4.91
3/15/2017 9:00 AM 51 62 1.18 0 5.9
3/15/2017 10:00 AM 55 56 1.87 0 6.03
3/15/2017 11:00 AM 58 51 2.4 0 4.66
3/15/2017 12:00 PM 61 49 2.82 0 4.92
3/15/2017 1:00 PM 65 44 2.98 0 3.82
3/15/2017 2:00 PM 67 41 2.89 0 3.09
3/15/2017 3:00 PM 69 39 2.58 0 3.85
3/15/2017 4:00 PM 69 39 2.1 0 3.86
3/15/2017 5:00 PM 67 44 1.23 0 4.56
3/15/2017 6:00 PM 65 48 0.5 0 3
3/15/2017 7:00 PM 60 57 0.03 0 3.05
3/15/2017 8:00 PM 58 65 0 0 2.21
3/15/2017 9:00 PM 56 74 0 0 2.19
3/15/2017 10:00 PM 54 78 0 0 2.55
3/15/2017 11:00 PM 53 80 0 0 1.78
Data Summary 54 66 21.10 0.00 2.62